Vremea mâine în Mărășești - Romania

Vrei sa afli care e starea vremii acum in Vrancea - Romania? Dorim sa iti furnizam starea vremii pentru Vrancea - Romania. Starea vremii Vrancea - Romania pentru astazi.

Vremea mâine în Mărășești

Temperatura minimă:
9.3 °C

Temperatura maximă:
24.4 °C

Mâine va fi: Senin
Precipitații: 0 %
Umiditate: 59%
Viteza maximă vânt mâine:
23.4 km/h

Evoluția vremii in Mărășești pe ore mâine

Ora: 03:00
Temperatura: °C
Sansa de precipitatii: %
Ora Descriere Temp Se simte Precipitatii Umiditate Vant
00:00Senin13.2°12°0%71%SSE 14 KM/H
01:00Senin12.6°11°0%74%SSE 15.8 KM/H
02:00Senin11.8°10°0%76%SSE 15.5 KM/H
03:00Senin11.1°9.2°0%77%SSE 14.8 KM/H
04:00Senin10.4°8.7°0%80%SSE 13 KM/H
05:00Senin9.8°8.1°0%82%SSE 11.9 KM/H
06:00Senin9.3°7.5°0%84%SSE 11.5 KM/H
07:00Senin10.8°9.6°0%81%S 10.4 KM/H
08:00Senin13.6°12.7°0%74%S 12.2 KM/H
09:00Senin16°16°0%67%SSE 14.4 KM/H
10:00Senin18.3°18.3°0%61%S 16.2 KM/H
11:00Senin20.3°20.3°0%55%S 18 KM/H
12:00Senin22°24.4°0%49%S 19.1 KM/H
13:00Senin23.2°24.6°0%43%S 19.1 KM/H
14:00Senin24°24.7°0%38%S 18.4 KM/H
15:00Senin24.4°24.8°0%36%S 18 KM/H
16:00Senin24.4°24.7°0%35%S 18.7 KM/H
17:00Senin24.1°24.6°0%36%S 19.8 KM/H
18:0023.5°24.5°0%38%S 19.8 KM/H
19:00Senin22.1°24.3°0%45%SSE 18.7 KM/H
20:00Patchy rain nearby18.9°18.9°87%53%SSE 21.6 KM/H
21:0016.9°16.9°0%55%SSE 23.4 KM/H
22:0015.4°15.4°0%58%SSE 21.6 KM/H
23:00Senin14.5°12.9°0%59%S 21.6 KM/H




tutorials